Time;durP1;ratioP1;P1;durP2;ratioP2;P2;SDS_P1;SDS_P2;PMS_P1;PMS_P2;Temp;Humidity;BMP_temperature;BMP_pressure;BME280_temperature;BME280_humidity;BME280_pressure;Samples;Min_cycle;Max_cycle;Signal;HPM_P1;HPM_P2
2021/10/02 00:45:30;;;;;;;6.82;4.50;;;;;;;21.97;43.83;101964.12;143715;567;46019;-59
2021/10/02 00:48:11;;;;;;;7.53;4.62;;;;;;;21.99;43.44;101961.12;143709;604;47000;-59
2021/10/02 00:50:50;;;;;;;9.73;4.22;;;;;;;21.96;43.87;101952.34;143705;597;47008;-58
2021/10/02 00:53:31;;;;;;;8.68;4.57;;;;;;;21.94;43.11;101950.94;143712;585;46008;-60
2021/10/02 00:56:10;;;;;;;7.57;5.18;;;;;;;21.96;43.74;101943.31;143710;746;47006;-59
2021/10/02 00:58:49;;;;;;;7.28;4.40;;;;;;;21.92;43.83;101947.59;143707;675;47002;-58
2021/10/02 01:02:11;;;;;;;8.02;4.62;;;;;;;21.92;44.91;101956.63;143715;675;47004;-58
2021/10/02 01:05:36;;;;;;;11.30;4.70;;;;;;;21.98;44.17;101957.53;143717;587;47005;-59
2021/10/02 01:08:49;;;;;;;6.33;4.30;;;;;;;21.98;43.59;101949.34;143719;598;46008;-58
2021/10/02 01:11:57;;;;;;;6.50;3.85;;;;;;;21.93;43.49;101941.06;143716;569;47000;-59
2021/10/02 01:15:00;;;;;;;8.73;4.10;;;;;;;21.94;43.75;101940.00;143720;594;46012;-59
2021/10/02 01:18:00;;;;;;;14.20;4.68;;;;;;;21.99;43.78;101936.50;143722;683;47004;-60
2021/10/02 01:21:08;;;;;;;11.35;4.87;;;;;;;21.97;43.91;101939.50;143716;567;47004;-59
2021/10/02 01:24:20;;;;;;;7.32;4.47;;;;;;;21.99;44.02;101937.31;143727;566;46008;-60
2021/10/02 01:27:29;;;;;;;8.20;4.40;;;;;;;21.99;44.87;101934.59;143724;751;46010;-59
2021/10/02 01:30:14;;;;;;;11.43;4.50;;;;;;;21.94;45.23;101932.59;143724;572;46006;-59
2021/10/02 01:33:23;;;;;;;7.20;4.03;;;;;;;21.93;44.94;101930.12;143718;573;46006;-58
2021/10/02 01:36:25;;;;;;;7.35;3.90;;;;;;;21.94;45.36;101934.50;143720;586;47006;-59
2021/10/02 01:48:01;;;;;;;10.57;4.15;;;;;;;21.90;44.84;101925.94;143720;581;46003;-59
2021/10/02 01:50:43;;;;;;;8.88;4.15;;;;;;;21.91;44.93;101927.63;143717;695;46014;-59
2021/10/02 01:53:21;;;;;;;9.52;4.85;;;;;;;21.90;44.24;101930.59;143717;704;47004;-59
2021/10/02 01:55:58;;;;;;;7.12;4.68;;;;;;;21.83;43.82;101933.50;143716;589;46006;-58
2021/10/02 01:58:36;;;;;;;10.95;5.18;;;;;;;21.86;45.40;101929.44;143718;596;47002;-60
2021/10/02 02:01:13;;;;;;;9.35;5.00;;;;;;;21.89;44.74;101928.94;143712;574;46919;-59
2021/10/02 02:03:55;;;;;;;7.28;4.82;;;;;;;21.87;44.51;101926.47;143716;683;47005;-60
2021/10/02 02:06:34;;;;;;;6.43;4.68;;;;;;;21.88;44.40;101930.00;143716;597;47008;-59
2021/10/02 02:09:12;;;;;;;7.43;4.65;;;;;;;21.88;44.70;101927.28;143714;580;47000;-58
2021/10/02 02:11:51;;;;;;;11.45;5.32;;;;;;;21.86;45.34;101919.34;143714;595;46011;-59
2021/10/02 02:14:29;;;;;;;9.00;4.90;;;;;;;21.87;45.46;101920.16;143712;597;47006;-58
2021/10/02 02:17:07;;;;;;;9.18;4.55;;;;;;;21.85;46.39;101920.41;143712;579;47004;-59
2021/10/02 02:19:45;;;;;;;6.28;4.75;;;;;;;21.81;45.68;101924.69;143716;573;47000;-59
2021/10/02 02:22:25;;;;;;;9.40;4.47;;;;;;;21.84;43.38;101920.63;143711;578;46010;-59
2021/10/02 02:25:04;;;;;;;6.18;4.53;;;;;;;21.84;45.28;101918.75;143712;575;47006;-59
2021/10/02 02:27:43;;;;;;;7.22;4.00;;;;;;;21.83;43.07;101919.81;143711;729;46006;-59
2021/10/02 02:30:19;;;;;;;4.97;3.50;;;;;;;21.89;40.67;101912.53;143717;635;47004;-59
2021/10/02 02:33:09;;;;;;;10.48;4.00;;;;;;;21.91;42.04;101913.94;143713;584;46012;-59
2021/10/02 02:35:45;;;;;;;12.55;4.60;;;;;;;21.90;45.31;101922.41;143716;668;46008;-59
2021/10/02 02:38:23;;;;;;;9.57;5.82;;;;;;;21.84;45.21;101923.38;143718;692;47006;-59
2021/10/02 02:41:01;;;;;;;10.90;4.80;;;;;;;21.83;45.69;101928.03;143717;601;47012;-60
2021/10/02 02:43:39;;;;;;;12.45;6.68;;;;;;;21.85;45.66;101914.94;143717;598;46012;-59
2021/10/02 02:46:27;;;;;;;8.35;4.43;;;;;;;21.88;44.47;101919.06;143716;588;46008;-59
2021/10/02 02:49:29;;;;;;;9.18;4.37;;;;;;;21.85;43.62;101914.94;143711;585;47009;-59
2021/10/02 02:52:27;;;;;;;10.85;4.43;;;;;;;21.88;43.89;101910.88;143714;733;47006;-59
2021/10/02 02:55:26;;;;;;;7.78;4.22;;;;;;;21.86;42.27;101911.13;143706;577;46012;-59
2021/10/02 02:58:06;;;;;;;9.20;4.32;;;;;;;21.87;43.07;101910.06;143718;576;46004;-59
2021/10/02 03:01:07;;;;;;;;;;;;;;;;;;;;;
2021/10/02 03:03:54;;;;;;;5.53;3.30;;;;;;;21.93;41.53;101910.97;143718;569;46007;-59
2021/10/02 03:06:33;;;;;;;10.73;3.50;;;;;;;21.95;42.11;101915.09;143719;578;46008;-59
2021/10/02 03:09:13;;;;;;;6.35;3.30;;;;;;;21.99;40.02;101912.69;143716;648;47004;-59
2021/10/02 03:11:50;;;;;;;7.28;4.20;;;;;;;21.99;42.01;101914.63;143719;574;46008;-60
2021/10/02 03:14:26;;;;;;;6.60;3.90;;;;;;;21.95;43.14;101906.91;143714;577;47008;-58
2021/10/02 03:17:04;;;;;;;10.02;4.12;;;;;;;21.94;42.87;101912.63;143717;601;46923;-58
2021/10/02 03:19:46;;;;;;;10.65;4.60;;;;;;;21.92;43.32;101917.50;143717;576;46010;-59
2021/10/02 03:22:28;;;;;;;8.07;4.37;;;;;;;21.91;44.36;101924.06;143717;583;46004;-60
2021/10/02 03:25:06;;;;;;;9.82;4.20;;;;;;;21.89;43.43;101904.31;143718;737;47002;-59
2021/10/02 03:27:42;;;;;;;9.02;4.57;;;;;;;21.90;43.39;101916.94;143715;600;46010;-59
2021/10/02 03:30:18;;;;;;;12.63;5.18;;;;;;;21.79;43.36;101910.44;143716;597;47004;-60
2021/10/02 03:33:00;;;;;;;13.88;4.82;;;;;;;21.76;43.63;101905.44;143715;568;47008;-59
2021/10/02 03:35:42;;;;;;;9.88;4.37;;;;;;;21.79;43.27;101908.56;143717;593;46008;-61
2021/10/02 03:38:24;;;;;;;10.30;4.45;;;;;;;21.81;42.74;101911.84;143715;573;47004;-60
2021/10/02 03:41:06;;;;;;;7.25;4.20;;;;;;;21.76;43.23;101914.50;143712;597;46009;-60
2021/10/02 03:43:44;;;;;;;8.07;4.10;;;;;;;21.78;42.97;101906.03;143719;713;46017;-60
2021/10/02 03:46:25;;;;;;;8.63;4.47;;;;;;;21.75;42.40;101914.72;143717;578;47000;-59
2021/10/02 03:49:04;;;;;;;9.10;3.80;;;;;;;21.79;41.89;101911.28;143716;592;46013;-59
2021/10/02 03:51:50;;;;;;;7.50;3.97;;;;;;;21.84;41.66;101912.44;143720;572;46008;-59
2021/10/02 03:54:27;;;;;;;8.43;3.60;;;;;;;21.85;42.97;101909.47;143719;583;46008;-59
2021/10/02 03:57:05;;;;;;;6.35;4.18;;;;;;;21.85;43.46;101914.09;143714;613;47002;-60
2021/10/02 03:59:44;;;;;;;8.77;4.43;;;;;;;21.84;43.19;101910.53;143717;577;46008;-59
2021/10/02 04:02:22;;;;;;;7.53;4.40;;;;;;;21.86;42.04;101910.28;143716;573;47005;-59
2021/10/02 04:05:00;;;;;;;6.53;4.15;;;;;;;21.88;42.51;101906.25;143720;582;46008;-60
2021/10/02 04:07:42;;;;;;;6.68;3.60;;;;;;;21.92;43.14;101912.03;143720;590;46011;-59
2021/10/02 04:10:24;;;;;;;7.10;3.83;;;;;;;21.89;41.82;101915.25;143715;569;46028;-58
2021/10/02 04:13:02;;;;;;;7.53;3.25;;;;;;;21.83;39.63;101917.09;143717;578;47004;-59
2021/10/02 04:15:39;;;;;;;8.88;3.58;;;;;;;21.88;41.01;101914.44;143716;593;46008;-59
2021/10/02 04:18:17;;;;;;;5.60;3.67;;;;;;;21.91;40.86;101913.12;143719;573;47000;-60
2021/10/02 04:20:55;;;;;;;19.77;15.18;;;;;;;21.93;39.03;101919.19;143717;574;47006;-59
2021/10/02 04:23:34;;;;;;;6.47;3.15;;;;;;;21.96;37.57;101918.69;143714;634;47006;-60
2021/10/02 04:26:11;;;;;;;5.65;3.30;;;;;;;21.99;37.93;101912.69;143717;587;46007;-59
2021/10/02 04:28:53;;;;;;;6.12;3.10;;;;;;;22.01;38.49;101910.56;143717;582;47002;-60
2021/10/02 04:31:34;;;;;;;7.68;2.62;;;;;;;22.03;38.88;101916.62;143717;583;46010;-59
2021/10/02 04:34:13;;;;;;;5.47;3.20;;;;;;;22.02;38.63;101906.75;143716;601;47006;-58
2021/10/02 04:36:51;;;;;;;7.87;3.58;;;;;;;22.03;38.90;101930.28;143716;591;47004;-59
2021/10/02 04:39:29;;;;;;;6.65;3.28;;;;;;;22.04;39.78;101915.53;143718;639;47000;-59
2021/10/02 04:42:07;;;;;;;7.85;3.10;;;;;;;22.01;38.99;101923.41;143716;572;46012;-59
2021/10/02 04:44:47;;;;;;;8.60;3.40;;;;;;;22.01;39.58;101926.97;143716;586;47004;-58
2021/10/02 04:47:27;;;;;;;7.50;3.42;;;;;;;22.03;39.54;101929.47;143719;598;46004;-59
2021/10/02 04:50:05;;;;;;;12.20;3.25;;;;;;;22.06;40.01;101928.97;143717;595;47000;-60
2021/10/02 04:52:43;;;;;;;7.28;3.72;;;;;;;22.06;40.04;101921.59;143717;578;46012;-59
2021/10/02 04:55:25;;;;;;;9.25;3.85;;;;;;;22.03;40.51;101926.75;143716;760;47006;-58
2021/10/02 04:58:02;;;;;;;10.65;4.93;;;;;;;22.02;41.12;101930.56;143718;575;47006;-60
2021/10/02 05:00:41;;;;;;;8.13;4.18;;;;;;;22.00;40.10;101940.91;143718;591;47000;-60
2021/10/02 05:03:19;;;;;;;15.32;3.67;;;;;;;22.03;41.02;101934.94;143718;613;46013;-58
2021/10/02 05:06:02;;;;;;;10.05;3.78;;;;;;;22.03;40.14;101934.94;143717;738;47004;-58
2021/10/02 05:08:39;;;;;;;8.20;3.40;;;;;;;22.04;40.14;101933.88;143715;588;47007;-59
2021/10/02 05:11:16;;;;;;;7.18;3.50;;;;;;;22.04;41.00;101942.09;143717;598;47000;-60
2021/10/02 05:13:55;;;;;;;6.22;3.30;;;;;;;22.02;39.96;101931.37;143719;633;46010;-59
2021/10/02 05:16:31;;;;;;;13.15;4.07;;;;;;;22.01;40.45;101939.84;143717;664;47007;-59
2021/10/02 05:19:10;;;;;;;4.40;3.25;;;;;;;22.01;39.57;101945.31;143718;583;46008;-58
2021/10/02 05:21:48;;;;;;;8.63;3.25;;;;;;;22.02;39.83;101939.56;143718;572;46008;-59
2021/10/02 05:24:26;;;;;;;5.07;3.37;;;;;;;22.01;39.07;101943.38;143712;588;46012;-59
2021/10/02 05:27:03;;;;;;;5.03;3.53;;;;;;;21.95;38.41;101949.84;143714;591;47004;-60
2021/10/02 05:29:43;;;;;;;8.60;3.28;;;;;;;21.98;38.85;101952.06;143715;599;46006;-60
2021/10/02 05:32:19;;;;;;;6.05;3.20;;;;;;;22.04;39.17;101950.28;143715;748;47002;-59
2021/10/02 05:34:57;;;;;;;13.32;4.35;;;;;;;22.05;39.60;101955.50;143713;587;46008;-58
2021/10/02 05:37:35;;;;;;;15.88;4.32;;;;;;;22.07;39.26;101964.28;143717;641;46004;-58
2021/10/02 05:40:13;;;;;;;8.80;3.53;;;;;;;22.09;38.96;101962.16;143714;586;46009;-58
2021/10/02 05:42:50;;;;;;;8.05;3.80;;;;;;;22.11;39.10;101961.87;143719;594;46012;-59
2021/10/02 05:45:29;;;;;;;15.68;5.32;;;;;;;22.11;39.74;101964.63;143714;674;46010;-59
2021/10/02 05:48:06;;;;;;;17.37;3.92;;;;;;;22.16;38.60;101961.12;143716;733;47006;-59
2021/10/02 05:50:45;;;;;;;8.40;2.90;;;;;;;22.18;37.65;101954.38;143714;584;46006;-59
2021/10/02 05:53:23;;;;;;;5.95;3.47;;;;;;;22.19;37.75;101958.75;143717;588;47002;-60
2021/10/02 05:56:02;;;;;;;9.85;3.70;;;;;;;22.21;38.48;101959.34;143713;580;47002;-60
2021/10/02 05:58:38;;;;;;;8.50;3.28;;;;;;;22.18;38.45;101962.56;143716;591;46008;-59
2021/10/02 06:01:17;;;;;;;8.98;4.18;;;;;;;22.17;38.80;101962.81;143715;576;46009;-58
2021/10/02 06:03:53;;;;;;;9.98;3.00;;;;;;;22.17;37.17;101960.06;143713;568;47000;-59
2021/10/02 06:06:34;;;;;;;6.68;3.12;;;;;;;22.16;38.06;101961.12;143716;600;46010;-59
2021/10/02 06:09:15;;;;;;;8.45;3.37;;;;;;;22.17;38.82;101966.38;143716;648;47006;-59
2021/10/02 06:11:51;;;;;;;6.60;3.35;;;;;;;22.18;38.29;101964.47;143720;577;46006;-58
2021/10/02 06:14:29;;;;;;;7.00;3.62;;;;;;;22.17;37.71;101966.38;143717;725;47002;-60
2021/10/02 06:17:24;;;;;;;12.50;3.60;;;;;;;22.17;37.72;101963.66;143719;649;46011;-59
2021/10/02 06:20:02;;;;;;;6.53;3.15;;;;;;;22.20;38.48;101971.38;143717;592;47004;-60
2021/10/02 06:22:41;;;;;;;17.40;4.87;;;;;;;22.22;39.75;101976.59;143717;602;47004;-59
2021/10/02 06:25:28;;;;;;;14.63;5.32;;;;;;;22.21;40.46;101969.44;143720;601;46006;-59
2021/10/02 06:28:06;;;;;;;12.55;5.45;;;;;;;22.22;39.77;101971.97;143719;619;46919;-59
2021/10/02 06:30:47;;;;;;;6.95;3.62;;;;;;;22.19;37.84;101980.66;143718;589;46007;-60
2021/10/02 06:33:26;;;;;;;52.03;10.18;;;;;;;22.23;38.64;101975.50;143721;584;46006;-61
2021/10/02 06:36:07;;;;;;;6.90;3.97;;;;;;;22.31;39.30;101979.75;143717;665;47002;-60
2021/10/02 06:38:44;;;;;;;12.90;4.15;;;;;;;22.30;39.37;101981.66;143718;712;46010;-59
2021/10/02 06:41:23;;;;;;;11.10;4.53;;;;;;;22.29;39.77;101979.16;143717;590;47004;-61
2021/10/02 06:44:00;;;;;;;12.85;4.00;;;;;;;22.26;39.45;101985.97;143719;566;46024;-61
2021/10/02 06:46:39;;;;;;;18.23;3.40;;;;;;;22.27;39.38;101985.72;143720;589;47002;-61
2021/10/02 06:49:16;;;;;;;12.88;3.83;;;;;;;22.33;38.73;102000.31;143716;591;46010;-61
2021/10/02 06:51:55;;;;;;;6.75;3.62;;;;;;;22.36;38.71;101999.81;143718;574;47004;-60
2021/10/02 06:54:32;;;;;;;6.68;3.35;;;;;;;22.37;38.08;101995.19;143719;729;46024;-60
2021/10/02 06:57:12;;;;;;;5.55;3.08;;;;;;;22.40;38.56;101995.53;143717;573;47000;-60
2021/10/02 06:59:53;;;;;;;11.38;4.35;;;;;;;22.42;38.86;102000.75;143718;713;46010;-61
2021/10/02 07:02:31;;;;;;;36.35;8.73;;;;;;;22.45;40.22;102005.75;143717;569;47004;-60
2021/10/02 07:05:10;;;;;;;41.55;11.45;;;;;;;22.45;40.46;102011.22;143716;569;47004;-60
2021/10/02 07:07:50;;;;;;;16.30;6.03;;;;;;;22.47;40.49;102000.06;143719;581;46013;-59
2021/10/02 07:10:27;;;;;;;10.80;4.93;;;;;;;22.45;40.02;101994.81;143718;583;47004;-60
2021/10/02 07:13:06;;;;;;;10.70;4.20;;;;;;;22.51;39.55;102001.19;143718;592;47006;-60
2021/10/02 07:15:44;;;;;;;7.22;3.17;;;;;;;22.56;38.66;102006.75;143719;569;46007;-62
2021/10/02 07:18:22;;;;;;;6.20;3.60;;;;;;;22.58;38.11;102012.81;143718;572;47002;-61
2021/10/02 07:20:58;;;;;;;13.70;3.20;;;;;;;22.60;37.21;102010.66;143719;566;46010;-61
2021/10/02 07:23:38;;;;;;;6.00;3.10;;;;;;;22.62;36.54;102011.25;143717;591;47004;-61
2021/10/02 07:26:14;;;;;;;5.65;3.25;;;;;;;22.69;38.62;102016.56;143721;567;46008;-59
2021/10/02 07:28:53;;;;;;;8.60;3.40;;;;;;;22.72;37.61;102021.53;143721;595;47002;-59
2021/10/02 07:31:30;;;;;;;8.02;3.40;;;;;;;22.77;36.54;102021.59;143718;580;46015;-61
2021/10/02 07:34:06;;;;;;;8.07;3.50;;;;;;;22.83;36.56;102023.34;143718;694;47006;-61
2021/10/02 07:36:46;;;;;;;7.55;3.70;;;;;;;22.93;36.47;102019.94;143720;671;47008;-60
2021/10/02 07:39:25;;;;;;;8.85;4.05;;;;;;;23.05;36.04;102019.00;143719;653;47000;-61
2021/10/02 07:42:03;;;;;;;7.45;3.42;;;;;;;23.15;35.15;102011.78;143712;577;47923;-59
2021/10/02 07:44:45;;;;;;;7.93;3.45;;;;;;;23.28;35.43;102013.37;143722;597;46004;-61
2021/10/02 07:47:25;;;;;;;7.82;3.53;;;;;;;23.36;35.42;102011.28;143721;598;46006;-60
2021/10/02 07:50:05;;;;;;;8.07;3.60;;;;;;;23.38;35.91;102020.91;143717;633;47002;-60
2021/10/02 07:52:50;;;;;;;7.45;3.42;;;;;;;23.39;35.64;102013.50;143720;590;46012;-60
2021/10/02 07:55:30;;;;;;;7.22;3.78;;;;;;;23.39;34.93;102008.00;143718;573;47004;-61
2021/10/02 07:58:08;;;;;;;6.45;3.45;;;;;;;23.44;35.30;102016.31;143717;593;46008;-61
2021/10/02 08:00:54;;;;;;;7.28;3.85;;;;;;;23.51;34.20;102016.13;143719;582;46008;-60
2021/10/02 08:03:41;;;;;;;10.02;3.83;;;;;;;23.54;35.16;102018.34;143721;568;46008;-60
2021/10/02 08:06:29;;;;;;;7.30;3.40;;;;;;;23.54;34.52;102015.63;143720;593;46006;-61
2021/10/02 08:09:09;;;;;;;6.03;3.20;;;;;;;23.66;35.62;102029.22;143726;730;46007;-59
2021/10/02 08:11:46;;;;;;;7.32;3.55;;;;;;;23.65;34.90;102013.84;143722;618;46004;-61
2021/10/02 08:14:33;;;;;;;10.10;3.40;;;;;;;23.60;34.58;102012.69;143720;574;46010;-61
2021/10/02 08:17:11;;;;;;;6.90;3.30;;;;;;;23.53;34.40;102023.03;143718;671;47004;-61
2021/10/02 08:19:58;;;;;;;9.65;3.42;;;;;;;23.57;35.13;102013.19;143718;586;46012;-61
2021/10/02 08:22:35;;;;;;;6.22;3.08;;;;;;;23.74;34.49;102015.03;143719;593;47000;-59
2021/10/02 08:25:14;;;;;;;6.72;3.22;;;;;;;24.07;34.21;102021.50;143721;588;46010;-61
2021/10/02 08:27:52;;;;;;;4.62;3.50;;;;;;;24.27;34.20;102015.38;143719;569;46006;-59
2021/10/02 08:30:31;;;;;;;7.40;3.42;;;;;;;24.44;33.81;102011.66;143716;663;47000;-60
2021/10/02 08:33:11;;;;;;;7.20;3.25;;;;;;;24.48;33.57;102018.31;143718;574;47002;-60
2021/10/02 08:35:49;;;;;;;7.22;3.78;;;;;;;24.50;32.83;102011.44;143718;569;46008;-60
2021/10/02 08:38:31;;;;;;;6.68;3.58;;;;;;;24.51;32.75;102020.53;143720;583;46011;-60
2021/10/02 08:41:14;;;;;;;10.07;3.42;;;;;;;24.53;32.27;102019.19;143718;670;46006;-61
2021/10/02 08:43:54;;;;;;;6.87;3.53;;;;;;;24.55;32.32;102016.16;143722;640;46013;-62
2021/10/02 08:46:34;;;;;;;11.23;3.55;;;;;;;24.53;32.64;102029.34;143718;616;46013;-60
2021/10/02 08:49:44;;;;;;;7.25;3.28;;;;;;;24.52;32.49;102023.00;143719;658;47004;-60
2021/10/02 08:52:23;;;;;;;8.38;3.55;;;;;;;24.64;33.15;102019.25;143722;579;46009;-59
2021/10/02 08:55:01;;;;;;;7.57;3.40;;;;;;;24.77;31.72;102016.09;143718;567;47002;-61
2021/10/02 08:57:42;;;;;;;5.37;3.35;;;;;;;24.73;30.83;102011.38;143719;568;46008;-61
2021/10/02 09:00:21;;;;;;;4.37;2.97;;;;;;;24.72;31.87;102020.72;143718;570;47006;-60
2021/10/02 09:03:04;;;;;;;5.40;3.45;;;;;;;24.86;31.19;102018.34;143713;573;47006;-61
2021/10/02 09:05:41;;;;;;;5.20;3.30;;;;;;;24.86;31.46;102018.34;143716;578;47000;-61
2021/10/02 09:08:19;;;;;;;6.00;3.40;;;;;;;25.25;31.21;102013.37;143716;567;46011;-60
2021/10/02 09:11:03;;;;;;;7.22;3.65;;;;;;;25.52;29.79;102009.69;143714;585;47006;-61
2021/10/02 09:13:40;;;;;;;5.72;3.67;;;;;;;25.64;30.52;102012.22;143715;615;47006;-61
2021/10/02 09:16:20;;;;;;;6.68;3.80;;;;;;;25.73;29.95;102007.03;143717;584;47000;-61
2021/10/02 09:18:58;;;;;;;5.95;3.67;;;;;;;25.54;29.32;102010.25;143718;665;46010;-61
2021/10/02 09:21:35;;;;;;;6.93;4.07;;;;;;;25.47;30.63;102017.09;143717;602;46008;-61
2021/10/02 09:24:23;;;;;;;8.35;3.90;;;;;;;25.47;29.60;102006.09;143721;593;46008;-61
2021/10/02 09:27:00;;;;;;;7.10;3.97;;;;;;;25.44;30.04;102012.94;143718;687;47002;-60
2021/10/02 09:30:08;;;;;;;4.30;3.90;;;;;;;25.31;30.79;102007.91;143716;580;46009;-60
2021/10/02 09:32:59;;;;;;;6.03;3.35;;;;;;;25.20;29.63;102004.28;143717;597;47006;-60
2021/10/02 09:35:42;;;;;;;5.82;3.55;;;;;;;25.15;30.92;102002.31;143715;572;46008;-61
2021/10/02 09:38:23;;;;;;;4.95;3.53;;;;;;;25.21;30.56;102003.19;143718;581;46008;-60
2021/10/02 09:41:05;;;;;;;7.25;3.50;;;;;;;25.22;31.21;101999.34;143715;576;46012;-60
2021/10/02 09:43:55;;;;;;;3.75;3.40;;;;;;;25.59;30.80;102006.69;143717;681;47004;-60
2021/10/02 09:46:43;;;;;;;5.62;3.80;;;;;;;25.74;30.28;102000.44;143722;569;46006;-61
2021/10/02 09:49:19;;;;;;;10.18;4.20;;;;;;;25.71;29.60;102009.22;143719;670;47002;-61
2021/10/02 09:51:58;;;;;;;5.87;5.18;;;;;;;25.54;30.14;102002.00;143721;675;46011;-61
2021/10/02 09:54:54;;;;;;;4.97;4.18;;;;;;;25.72;30.23;102000.69;143715;591;46008;-61
2021/10/02 09:57:34;;;;;;;5.62;4.25;;;;;;;25.64;29.99;102003.13;143716;609;46004;-61
2021/10/02 10:00:18;;;;;;;4.55;4.15;;;;;;;25.53;29.32;102016.84;143718;589;47002;-60
2021/10/02 10:02:56;;;;;;;5.22;4.72;;;;;;;25.36;29.21;102011.50;143719;721;46017;-60
2021/10/02 10:05:57;;;;;;;5.47;4.03;;;;;;;25.25;29.45;102016.13;143718;572;46010;-60
2021/10/02 10:08:41;;;;;;;6.80;3.65;;;;;;;25.23;30.36;102009.25;143718;626;47006;-60
2021/10/02 10:11:23;;;;;;;4.90;4.45;;;;;;;25.20;30.29;102012.53;143719;634;47000;-60
2021/10/02 10:14:12;;;;;;;6.65;3.72;;;;;;;25.16;30.45;102011.38;143720;643;46012;-60
2021/10/02 10:16:49;;;;;;;6.65;4.68;;;;;;;25.07;30.58;102022.06;143718;718;47004;-59
2021/10/02 10:19:31;;;;;;;6.12;3.90;;;;;;;25.09;30.57;102015.22;143720;619;46006;-61
2021/10/02 10:22:30;;;;;;;6.40;4.03;;;;;;;25.12;30.25;102013.84;143720;581;46012;-59
2021/10/02 10:25:18;;;;;;;7.55;3.85;;;;;;;25.16;31.00;102001.22;143716;567;47004;-60
2021/10/02 10:28:00;;;;;;;6.18;4.10;;;;;;;25.17;29.70;102002.03;143718;742;47006;-61
2021/10/02 10:30:42;;;;;;;4.97;3.47;;;;;;;25.13;30.39;101999.84;143714;585;46006;-61
2021/10/02 10:33:19;;;;;;;11.60;4.45;;;;;;;25.13;30.12;102002.59;143724;590;47002;-61
2021/10/02 10:36:01;;;;;;;4.95;4.03;;;;;;;25.15;30.39;101999.56;143718;579;47004;-61
2021/10/02 10:38:41;;;;;;;7.62;5.53;;;;;;;25.20;30.67;102001.53;143723;591;47002;-61
2021/10/02 10:41:20;;;;;;;6.45;4.37;;;;;;;25.05;30.72;101999.53;143723;588;46006;-61
2021/10/02 10:43:58;;;;;;;7.45;4.37;;;;;;;25.05;30.57;101989.34;143720;616;46013;-61
2021/10/02 10:46:36;;;;;;;7.07;4.30;;;;;;;25.06;30.66;102003.94;143720;580;46010;-61
2021/10/02 10:49:13;;;;;;;9.70;5.20;;;;;;;24.98;31.08;102000.59;143718;641;47004;-60
2021/10/02 10:51:52;;;;;;;6.00;4.28;;;;;;;24.93;30.70;101995.03;143720;593;46007;-61
2021/10/02 10:54:28;;;;;;;5.05;4.45;;;;;;;24.88;30.69;101981.28;143720;614;47002;-61
2021/10/02 10:57:07;;;;;;;9.43;4.45;;;;;;;24.85;30.56;101992.81;143716;592;46021;-60
2021/10/02 11:00:01;;;;;;;9.45;4.32;;;;;;;24.78;30.03;101981.19;143719;575;46005;-59
2021/10/02 11:02:58;;;;;;;11.93;4.78;;;;;;;24.74;30.79;101989.16;143718;572;46006;-60
2021/10/02 11:06:08;;;;;;;7.55;3.67;;;;;;;24.62;30.97;101989.31;143720;574;47002;-61
2021/10/02 11:09:18;;;;;;;4.43;3.95;;;;;;;24.66;31.24;101984.94;143716;663;46013;-61
2021/10/02 11:12:00;;;;;;;5.82;4.60;;;;;;;24.68;30.87;101987.41;143720;645;46004;-60
2021/10/02 11:15:05;;;;;;;7.60;4.18;;;;;;;24.73;30.83;101982.00;143717;567;47004;-61
2021/10/02 11:17:46;;;;;;;4.20;3.80;;;;;;;24.72;31.46;101983.09;143720;577;47002;-62
2021/10/02 11:20:48;;;;;;;6.10;3.95;;;;;;;24.68;31.20;101979.19;143719;585;46919;-62
2021/10/02 11:24:03;;;;;;;8.50;4.75;;;;;;;24.70;31.56;101976.19;143719;640;47006;-61
2021/10/02 11:27:00;;;;;;;8.15;4.47;;;;;;;24.73;31.77;101981.16;143719;661;46008;-61
2021/10/02 11:29:44;;;;;;;7.35;4.70;;;;;;;24.79;31.63;101982.84;143719;616;47000;-59
2021/10/02 11:32:36;;;;;;;7.75;4.93;;;;;;;24.88;31.82;101969.44;143715;572;46021;-60
2021/10/02 11:35:45;;;;;;;10.10;4.70;;;;;;;24.98;30.77;101973.09;143720;653;47004;-61
2021/10/02 11:38:43;;;;;;;8.32;5.80;;;;;;;24.99;30.57;101971.16;143720;598;46017;-59
2021/10/02 11:41:33;;;;;;;6.75;4.72;;;;;;;25.07;30.26;101965.16;143719;597;47002;-60
2021/10/02 11:44:25;;;;;;;6.78;4.90;;;;;;;25.18;30.73;101963.31;143711;592;46012;-60
2021/10/02 11:47:46;;;;;;;;;;;;;;;;;;;;;
2021/10/02 11:50:37;;;;;;;8.50;4.32;;;;;;;25.13;30.36;101952.28;143717;700;46009;-62
2021/10/02 11:53:41;;;;;;;6.95;4.60;;;;;;;25.07;29.52;101942.34;143715;605;47000;-61
2021/10/02 11:56:35;;;;;;;7.43;5.20;;;;;;;24.78;30.77;101965.56;143715;645;46008;-59
2021/10/02 11:59:13;;;;;;;8.65;5.15;;;;;;;24.74;30.02;101955.34;143715;651;47006;-60
2021/10/02 12:01:52;;;;;;;9.70;4.93;;;;;;;24.70;30.65;101955.06;143716;575;46012;-59
2021/10/02 12:04:51;;;;;;;6.95;4.00;;;;;;;24.70;30.44;101949.56;143718;578;47002;-59
2021/10/02 12:07:41;;;;;;;9.07;4.82;;;;;;;24.81;31.05;101953.19;143716;649;46011;-60
2021/10/02 12:10:18;;;;;;;6.75;4.47;;;;;;;24.92;30.27;101957.66;143718;584;46006;-60
2021/10/02 12:12:57;;;;;;;8.10;4.30;;;;;;;25.02;30.34;101959.63;143718;575;46023;-61
2021/10/02 12:15:42;;;;;;;7.40;4.10;;;;;;;25.06;30.10;101954.47;143716;609;47000;-60
2021/10/02 12:18:21;;;;;;;9.23;5.72;;;;;;;25.12;30.07;101964.38;143717;587;46008;-60
2021/10/02 12:20:58;;;;;;;6.62;4.57;;;;;;;25.20;30.27;101963.03;143720;596;47006;-61
2021/10/02 12:23:37;;;;;;;8.40;4.45;;;;;;;25.07;29.45;101951.44;143717;621;46023;-61
2021/10/02 12:26:13;;;;;;;6.35;5.15;;;;;;;25.20;30.38;101947.38;143718;568;47000;-62
2021/10/02 12:28:55;;;;;;;5.62;5.07;;;;;;;25.34;29.87;101950.44;143717;744;46019;-61
2021/10/02 12:31:51;;;;;;;8.70;5.22;;;;;;;25.56;30.08;101955.81;143716;710;47006;-61
2021/10/02 12:34:58;;;;;;;9.27;4.70;;;;;;;25.65;29.68;101953.34;143720;582;46018;-61
2021/10/02 12:37:36;;;;;;;8.48;5.65;;;;;;;25.68;29.22;101951.97;143717;626;47008;-61
2021/10/02 12:40:19;;;;;;;6.32;5.72;;;;;;;25.76;28.41;101956.13;143717;608;46008;-61
2021/10/02 12:43:13;;;;;;;5.35;4.70;;;;;;;25.56;28.32;101947.53;143716;577;47006;-62
2021/10/02 12:46:00;;;;;;;5.50;5.00;;;;;;;25.55;27.92;101945.87;143718;578;46012;-60
2021/10/02 12:48:39;;;;;;;7.78;6.30;;;;;;;25.53;29.31;101944.50;143718;568;47000;-61
2021/10/02 12:51:17;;;;;;;9.52;6.90;;;;;;;25.47;29.34;101938.16;143715;610;46012;-61
2021/10/02 12:53:59;;;;;;;7.95;5.65;;;;;;;25.49;28.73;101929.66;143718;591;46004;-59
2021/10/02 12:56:58;;;;;;;8.15;6.18;;;;;;;25.52;29.50;101932.66;143709;696;46925;-60
2021/10/02 13:00:09;;;;;;;5.55;4.72;;;;;;;25.49;28.79;101929.66;143722;602;46008;-59
2021/10/02 13:03:14;;;;;;;6.20;5.65;;;;;;;25.48;28.79;101930.75;143718;726;46925;-62
2021/10/02 13:05:51;;;;;;;7.78;5.53;;;;;;;25.47;28.66;101931.84;143722;567;47006;-59
2021/10/02 13:08:28;;;;;;;6.03;5.35;;;;;;;25.37;28.83;101929.84;143719;584;46008;-59
2021/10/02 13:11:10;;;;;;;7.28;5.82;;;;;;;25.37;29.10;101932.59;143718;617;47000;-61
2021/10/02 13:13:49;;;;;;;8.38;5.45;;;;;;;25.40;28.83;101929.31;143719;618;46011;-61
2021/10/02 13:16:31;;;;;;;5.35;4.53;;;;;;;25.37;28.75;101927.09;143718;569;47004;-59
2021/10/02 13:19:09;;;;;;;7.95;5.07;;;;;;;25.36;29.22;101928.19;143718;575;46006;-60
2021/10/02 13:21:48;;;;;;;8.13;5.62;;;;;;;25.33;29.00;101932.28;143718;577;47002;-59
2021/10/02 13:24:25;;;;;;;6.18;5.50;;;;;;;25.30;29.20;101934.75;143713;691;46008;-60
2021/10/02 13:27:15;;;;;;;11.07;5.80;;;;;;;25.24;28.60;101923.72;143718;581;46009;-60
2021/10/02 13:30:06;;;;;;;5.32;4.82;;;;;;;25.22;28.58;101928.69;143715;619;46926;-59
2021/10/02 13:32:57;;;;;;;8.45;4.87;;;;;;;25.18;28.83;101930.31;143717;633;47002;-60
2021/10/02 13:35:37;;;;;;;6.43;5.05;;;;;;;25.12;29.25;101915.72;143715;572;46008;-60